sensor_id;sensor_type;location;lat;lon;timestamp;pressure;altitude;pressure_sealevel;temperature;humidity
57050;BME280;42935;50.966;16.992;2023-11-18T00:01:48;101743.89;;;2.89;100.00
57050;BME280;42935;50.966;16.992;2023-11-18T00:05:04;101751.52;;;2.87;100.00
57050;BME280;42935;50.966;16.992;2023-11-18T00:08:19;101752.13;;;2.87;100.00
57050;BME280;42935;50.966;16.992;2023-11-18T00:11:34;101754.16;;;2.87;100.00
57050;BME280;42935;50.966;16.992;2023-11-18T00:14:51;101745.45;;;2.84;100.00
57050;BME280;42935;50.966;16.992;2023-11-18T00:18:13;101748.11;;;2.82;100.00
57050;BME280;42935;50.966;16.992;2023-11-18T00:21:31;101751.68;;;2.78;100.00
57050;BME280;42935;50.966;16.992;2023-11-18T00:24:49;101755.44;;;2.73;100.00
57050;BME280;42935;50.966;16.992;2023-11-18T00:28:08;101757.53;;;2.65;100.00
57050;BME280;42935;50.966;16.992;2023-11-18T00:31:25;101746.32;;;2.53;100.00
57050;BME280;42935;50.966;16.992;2023-11-18T00:34:43;101744.23;;;2.51;100.00
57050;BME280;42935;50.966;16.992;2023-11-18T00:38:01;101750.35;;;2.51;100.00
57050;BME280;42935;50.966;16.992;2023-11-18T00:41:19;101757.91;;;2.59;100.00
57050;BME280;42935;50.966;16.992;2023-11-18T00:44:41;101737.50;;;2.40;100.00
57050;BME280;42935;50.966;16.992;2023-11-18T00:47:59;101766.93;;;2.55;100.00
57050;BME280;42935;50.966;16.992;2023-11-18T00:51:12;101767.88;;;2.54;100.00
57050;BME280;42935;50.966;16.992;2023-11-18T00:54:28;101770.97;;;2.53;100.00
57050;BME280;42935;50.966;16.992;2023-11-18T00:57:46;101760.75;;;2.47;100.00
57050;BME280;42935;50.966;16.992;2023-11-18T01:01:01;101774.50;;;2.54;100.00
57050;BME280;42935;50.966;16.992;2023-11-18T01:04:19;101782.69;;;2.55;100.00
57050;BME280;42935;50.966;16.992;2023-11-18T01:07:35;101779.82;;;2.57;100.00
57050;BME280;42935;50.966;16.992;2023-11-18T01:10:56;101779.52;;;2.58;100.00
57050;BME280;42935;50.966;16.992;2023-11-18T01:14:13;101776.73;;;2.61;100.00
57050;BME280;42935;50.966;16.992;2023-11-18T01:17:31;101791.18;;;2.64;100.00
57050;BME280;42935;50.966;16.992;2023-11-18T01:20:48;101785.66;;;2.62;100.00
57050;BME280;42935;50.966;16.992;2023-11-18T01:24:06;101791.45;;;2.62;100.00
57050;BME280;42935;50.966;16.992;2023-11-18T01:27:24;101790.17;;;2.56;100.00
57050;BME280;42935;50.966;16.992;2023-11-18T01:30:37;101800.81;;;2.61;100.00
57050;BME280;42935;50.966;16.992;2023-11-18T01:33:50;101807.43;;;2.68;100.00
57050;BME280;42935;50.966;16.992;2023-11-18T01:37:09;101813.10;;;2.64;100.00
57050;BME280;42935;50.966;16.992;2023-11-18T01:40:23;101814.53;;;2.67;100.00
57050;BME280;42935;50.966;16.992;2023-11-18T01:43:41;101816.30;;;2.67;100.00
57050;BME280;42935;50.966;16.992;2023-11-18T01:47:02;101819.10;;;2.63;100.00
57050;BME280;42935;50.966;16.992;2023-11-18T01:50:17;101820.47;;;2.63;100.00
57050;BME280;42935;50.966;16.992;2023-11-18T01:53:37;101821.88;;;2.61;100.00
57050;BME280;42935;50.966;16.992;2023-11-18T01:56:56;101801.89;;;2.48;100.00
57050;BME280;42935;50.966;16.992;2023-11-18T02:00:20;101824.01;;;2.59;100.00
57050;BME280;42935;50.966;16.992;2023-11-18T02:03:37;101823.85;;;2.50;100.00
57050;BME280;42935;50.966;16.992;2023-11-18T02:06:58;101832.12;;;2.56;100.00
57050;BME280;42935;50.966;16.992;2023-11-18T02:10:27;101840.57;;;2.53;100.00
57050;BME280;42935;50.966;16.992;2023-11-18T02:13:48;101848.02;;;2.54;100.00
57050;BME280;42935;50.966;16.992;2023-11-18T02:17:08;101849.87;;;2.56;100.00
57050;BME280;42935;50.966;16.992;2023-11-18T02:20:26;101857.11;;;2.53;100.00
57050;BME280;42935;50.966;16.992;2023-11-18T02:23:48;101860.65;;;2.50;100.00
57050;BME280;42935;50.966;16.992;2023-11-18T02:27:07;101865.80;;;2.45;100.00
57050;BME280;42935;50.966;16.992;2023-11-18T02:30:27;101864.16;;;2.39;100.00
57050;BME280;42935;50.966;16.992;2023-11-18T02:33:55;101858.78;;;2.31;100.00
57050;BME280;42935;50.966;16.992;2023-11-18T02:37:16;101876.73;;;2.41;100.00
57050;BME280;42935;50.966;16.992;2023-11-18T02:40:39;101881.84;;;2.39;100.00
57050;BME280;42935;50.966;16.992;2023-11-18T02:43:57;101886.04;;;2.37;100.00
57050;BME280;42935;50.966;16.992;2023-11-18T02:47:16;101886.05;;;2.38;100.00
57050;BME280;42935;50.966;16.992;2023-11-18T02:50:35;101887.65;;;2.35;100.00
57050;BME280;42935;50.966;16.992;2023-11-18T02:53:52;101896.02;;;2.34;100.00
57050;BME280;42935;50.966;16.992;2023-11-18T02:57:10;101904.49;;;2.37;100.00
57050;BME280;42935;50.966;16.992;2023-11-18T03:00:28;101910.60;;;2.38;100.00
57050;BME280;42935;50.966;16.992;2023-11-18T03:03:49;101919.09;;;2.36;100.00
57050;BME280;42935;50.966;16.992;2023-11-18T03:07:05;101912.01;;;2.34;100.00
57050;BME280;42935;50.966;16.992;2023-11-18T03:10:21;101925.69;;;2.38;100.00
57050;BME280;42935;50.966;16.992;2023-11-18T03:13:37;101931.34;;;2.32;100.00
57050;BME280;42935;50.966;16.992;2023-11-18T03:16:55;101943.40;;;2.30;100.00
57050;BME280;42935;50.966;16.992;2023-11-18T03:20:13;101933.59;;;2.25;100.00
57050;BME280;42935;50.966;16.992;2023-11-18T03:23:28;101943.38;;;2.22;100.00
57050;BME280;42935;50.966;16.992;2023-11-18T03:26:45;101945.16;;;2.20;100.00
57050;BME280;42935;50.966;16.992;2023-11-18T03:30:00;101946.56;;;2.22;100.00
57050;BME280;42935;50.966;16.992;2023-11-18T03:33:17;101957.25;;;2.20;100.00
57050;BME280;42935;50.966;16.992;2023-11-18T03:36:36;101966.77;;;2.20;100.00
57050;BME280;42935;50.966;16.992;2023-11-18T03:39:56;101924.38;;;1.91;100.00
57050;BME280;42935;50.966;16.992;2023-11-18T03:43:11;101955.87;;;2.17;100.00
57050;BME280;42935;50.966;16.992;2023-11-18T03:46:29;101956.33;;;2.09;100.00
57050;BME280;42935;50.966;16.992;2023-11-18T03:49:48;101954.99;;;2.09;100.00
57050;BME280;42935;50.966;16.992;2023-11-18T03:53:05;101965.63;;;2.13;100.00
57050;BME280;42935;50.966;16.992;2023-11-18T03:56:20;101971.23;;;2.13;100.00
57050;BME280;42935;50.966;16.992;2023-11-18T03:59:35;101970.37;;;2.17;100.00
57050;BME280;42935;50.966;16.992;2023-11-18T04:02:50;101962.77;;;2.14;100.00
57050;BME280;42935;50.966;16.992;2023-11-18T04:06:05;101986.61;;;2.19;100.00
57050;BME280;42935;50.966;16.992;2023-11-18T04:09:24;101986.54;;;2.19;100.00
57050;BME280;42935;50.966;16.992;2023-11-18T04:12:40;101983.79;;;2.21;100.00
57050;BME280;42935;50.966;16.992;2023-11-18T04:16:04;101977.95;;;2.21;100.00
57050;BME280;42935;50.966;16.992;2023-11-18T04:19:22;101984.20;;;2.22;100.00
57050;BME280;42935;50.966;16.992;2023-11-18T04:22:43;101975.97;;;2.20;100.00
57050;BME280;42935;50.966;16.992;2023-11-18T04:25:56;101985.67;;;2.25;100.00
57050;BME280;42935;50.966;16.992;2023-11-18T04:29:11;101988.79;;;2.26;100.00
57050;BME280;42935;50.966;16.992;2023-11-18T04:32:28;101992.07;;;2.29;100.00
57050;BME280;42935;50.966;16.992;2023-11-18T04:35:49;101997.57;;;2.24;100.00
57050;BME280;42935;50.966;16.992;2023-11-18T04:39:07;101985.62;;;2.18;100.00
57050;BME280;42935;50.966;16.992;2023-11-18T04:42:27;101998.90;;;2.25;100.00
57050;BME280;42935;50.966;16.992;2023-11-18T04:45:43;101990.67;;;2.16;100.00
57050;BME280;42935;50.966;16.992;2023-11-18T04:48:58;101991.95;;;2.16;100.00
57050;BME280;42935;50.966;16.992;2023-11-18T04:52:20;102007.54;;;2.22;100.00
57050;BME280;42935;50.966;16.992;2023-11-18T04:55:38;102007.16;;;2.21;100.00
57050;BME280;42935;50.966;16.992;2023-11-18T04:58:55;102006.31;;;2.23;100.00
57050;BME280;42935;50.966;16.992;2023-11-18T05:02:12;101985.27;;;2.11;100.00
57050;BME280;42935;50.966;16.992;2023-11-18T05:05:25;101999.24;;;2.16;100.00
57050;BME280;42935;50.966;16.992;2023-11-18T05:08:43;102014.14;;;2.24;100.00
57050;BME280;42935;50.966;16.992;2023-11-18T05:11:57;102014.49;;;2.23;100.00
57050;BME280;42935;50.966;16.992;2023-11-18T05:15:14;102006.29;;;2.16;100.00
57050;BME280;42935;50.966;16.992;2023-11-18T05:18:32;102023.04;;;2.18;100.00
57050;BME280;42935;50.966;16.992;2023-11-18T05:21:54;102026.41;;;2.21;100.00
57050;BME280;42935;50.966;16.992;2023-11-18T05:25:13;102028.53;;;2.19;100.00
57050;BME280;42935;50.966;16.992;2023-11-18T05:28:25;102017.59;;;2.08;100.00
57050;BME280;42935;50.966;16.992;2023-11-18T05:31:38;102036.71;;;2.18;100.00
57050;BME280;42935;50.966;16.992;2023-11-18T05:34:56;102036.47;;;2.15;100.00
57050;BME280;42935;50.966;16.992;2023-11-18T05:38:12;102034.14;;;2.11;100.00
57050;BME280;42935;50.966;16.992;2023-11-18T05:41:34;102037.57;;;2.10;100.00
57050;BME280;42935;50.966;16.992;2023-11-18T05:44:55;102040.27;;;2.14;100.00
57050;BME280;42935;50.966;16.992;2023-11-18T05:48:11;102037.56;;;2.14;100.00
57050;BME280;42935;50.966;16.992;2023-11-18T05:51:30;102043.41;;;2.13;100.00
57050;BME280;42935;50.966;16.992;2023-11-18T05:54:44;102043.53;;;2.11;100.00
57050;BME280;42935;50.966;16.992;2023-11-18T05:58:00;102047.44;;;2.13;100.00
57050;BME280;42935;50.966;16.992;2023-11-18T06:01:25;102062.45;;;2.09;100.00
57050;BME280;42935;50.966;16.992;2023-11-18T06:04:46;102068.34;;;2.05;100.00
57050;BME280;42935;50.966;16.992;2023-11-18T06:08:04;102077.58;;;2.10;100.00
57050;BME280;42935;50.966;16.992;2023-11-18T06:11:21;102077.73;;;2.11;100.00
57050;BME280;42935;50.966;16.992;2023-11-18T06:14:40;102078.55;;;2.10;100.00
57050;BME280;42935;50.966;16.992;2023-11-18T06:18:00;102077.20;;;2.04;100.00
57050;BME280;42935;50.966;16.992;2023-11-18T06:21:19;102085.46;;;2.03;100.00
57050;BME280;42935;50.966;16.992;2023-11-18T06:24:39;102090.12;;;2.07;100.00
57050;BME280;42935;50.966;16.992;2023-11-18T06:27:59;102086.48;;;1.97;100.00
57050;BME280;42935;50.966;16.992;2023-11-18T06:31:15;102081.12;;;1.83;100.00
57050;BME280;42935;50.966;16.992;2023-11-18T06:34:34;102078.30;;;1.83;100.00
57050;BME280;42935;50.966;16.992;2023-11-18T06:37:48;102094.65;;;1.82;100.00
57050;BME280;42935;50.966;16.992;2023-11-18T06:41:06;102056.12;;;1.50;100.00
57050;BME280;42935;50.966;16.992;2023-11-18T06:44:28;102101.68;;;1.73;100.00
57050;BME280;42935;50.966;16.992;2023-11-18T06:47:45;102112.89;;;1.72;100.00
57050;BME280;42935;50.966;16.992;2023-11-18T06:51:02;102120.36;;;1.65;100.00
57050;BME280;42935;50.966;16.992;2023-11-18T06:54:23;102127.27;;;1.68;100.00
57050;BME280;42935;50.966;16.992;2023-11-18T06:57:39;102129.43;;;1.76;100.00
57050;BME280;42935;50.966;16.992;2023-11-18T07:01:04;102135.80;;;1.73;100.00
57050;BME280;42935;50.966;16.992;2023-11-18T07:04:24;102138.00;;;1.78;100.00
57050;BME280;42935;50.966;16.992;2023-11-18T07:07:38;102135.20;;;1.82;100.00
57050;BME280;42935;50.966;16.992;2023-11-18T07:10:55;102132.05;;;1.77;100.00
57050;BME280;42935;50.966;16.992;2023-11-18T07:14:17;102150.58;;;1.92;100.00
57050;BME280;42935;50.966;16.992;2023-11-18T07:17:36;102153.70;;;1.90;100.00
57050;BME280;42935;50.966;16.992;2023-11-18T07:20:54;102163.65;;;1.95;100.00
57050;BME280;42935;50.966;16.992;2023-11-18T07:24:09;102157.02;;;1.99;100.00
57050;BME280;42935;50.966;16.992;2023-11-18T07:27:27;102159.14;;;2.06;100.00
57050;BME280;42935;50.966;16.992;2023-11-18T07:30:44;102158.81;;;2.08;100.00
57050;BME280;42935;50.966;16.992;2023-11-18T07:34:07;102159.58;;;2.00;100.00
57050;BME280;42935;50.966;16.992;2023-11-18T07:37:24;102174.44;;;2.11;100.00
57050;BME280;42935;50.966;16.992;2023-11-18T07:40:40;102163.79;;;2.12;100.00
57050;BME280;42935;50.966;16.992;2023-11-18T07:44:02;102171.93;;;2.17;100.00
57050;BME280;42935;50.966;16.992;2023-11-18T07:47:18;102168.99;;;2.15;100.00
57050;BME280;42935;50.966;16.992;2023-11-18T07:50:39;102181.87;;;2.22;100.00
57050;BME280;42935;50.966;16.992;2023-11-18T07:53:58;102161.85;;;2.28;100.00
57050;BME280;42935;50.966;16.992;2023-11-18T07:57:15;102176.24;;;2.38;100.00
57050;BME280;42935;50.966;16.992;2023-11-18T08:00:30;102183.43;;;2.36;100.00
57050;BME280;42935;50.966;16.992;2023-11-18T08:03:51;102189.35;;;2.40;100.00
57050;BME280;42935;50.966;16.992;2023-11-18T08:07:09;102190.62;;;2.42;100.00
57050;BME280;42935;50.966;16.992;2023-11-18T08:10:22;102183.67;;;2.43;100.00
57050;BME280;42935;50.966;16.992;2023-11-18T08:13:45;102185.38;;;2.44;100.00
57050;BME280;42935;50.966;16.992;2023-11-18T08:17:04;102183.17;;;2.40;100.00
57050;BME280;42935;50.966;16.992;2023-11-18T08:20:21;102188.99;;;2.44;100.00
57050;BME280;42935;50.966;16.992;2023-11-18T08:23:39;102196.02;;;2.54;100.00
57050;BME280;42935;50.966;16.992;2023-11-18T08:26:56;102193.37;;;2.57;100.00
57050;BME280;42935;50.966;16.992;2023-11-18T08:30:14;102189.99;;;2.54;100.00
57050;BME280;42935;50.966;16.992;2023-11-18T08:33:35;102205.91;;;2.68;100.00
57050;BME280;42935;50.966;16.992;2023-11-18T08:36:50;102166.15;;;2.45;100.00
57050;BME280;42935;50.966;16.992;2023-11-18T08:40:10;102209.54;;;2.75;100.00
57050;BME280;42935;50.966;16.992;2023-11-18T08:43:31;102220.95;;;2.66;100.00
57050;BME280;42935;50.966;16.992;2023-11-18T08:46:50;102222.92;;;2.68;100.00
57050;BME280;42935;50.966;16.992;2023-11-18T08:50:15;102230.77;;;2.68;100.00
57050;BME280;42935;50.966;16.992;2023-11-18T08:53:33;102230.41;;;2.69;100.00
57050;BME280;42935;50.966;16.992;2023-11-18T08:56:57;102238.92;;;2.73;100.00
57050;BME280;42935;50.966;16.992;2023-11-18T09:00:19;102225.30;;;2.64;100.00
57050;BME280;42935;50.966;16.992;2023-11-18T09:03:47;102246.48;;;2.70;100.00
57050;BME280;42935;50.966;16.992;2023-11-18T09:07:09;102253.98;;;2.70;100.00
57050;BME280;42935;50.966;16.992;2023-11-18T09:10:25;102253.35;;;2.66;100.00
57050;BME280;42935;50.966;16.992;2023-11-18T09:13:46;102249.41;;;2.60;100.00
57050;BME280;42935;50.966;16.992;2023-11-18T09:17:09;102263.63;;;2.70;100.00
57050;BME280;42935;50.966;16.992;2023-11-18T09:20:30;102261.60;;;2.68;100.00
57050;BME280;42935;50.966;16.992;2023-11-18T09:23:49;102260.70;;;2.69;100.00
57050;BME280;42935;50.966;16.992;2023-11-18T09:27:04;102261.19;;;2.84;100.00
57050;BME280;42935;50.966;16.992;2023-11-18T09:30:22;102258.37;;;2.90;100.00
57050;BME280;42935;50.966;16.992;2023-11-18T09:33:36;102266.15;;;2.86;100.00
57050;BME280;42935;50.966;16.992;2023-11-18T09:37:00;102272.84;;;2.90;100.00
57050;BME280;42935;50.966;16.992;2023-11-18T09:40:18;102265.49;;;2.94;100.00
57050;BME280;42935;50.966;16.992;2023-11-18T09:43:42;102270.47;;;3.00;100.00
57050;BME280;42935;50.966;16.992;2023-11-18T09:47:07;102277.92;;;2.99;100.00
57050;BME280;42935;50.966;16.992;2023-11-18T09:50:27;102279.73;;;2.99;100.00
57050;BME280;42935;50.966;16.992;2023-11-18T09:53:45;102285.88;;;3.05;100.00
57050;BME280;42935;50.966;16.992;2023-11-18T09:57:16;102286.63;;;3.02;100.00
57050;BME280;42935;50.966;16.992;2023-11-18T10:00:40;102287.30;;;3.06;100.00
57050;BME280;42935;50.966;16.992;2023-11-18T10:03:57;102278.91;;;2.95;100.00
57050;BME280;42935;50.966;16.992;2023-11-18T10:07:16;102294.97;;;3.05;100.00
57050;BME280;42935;50.966;16.992;2023-11-18T10:10:35;102294.09;;;3.04;100.00
57050;BME280;42935;50.966;16.992;2023-11-18T10:14:02;102291.48;;;3.08;100.00
57050;BME280;42935;50.966;16.992;2023-11-18T10:17:32;102299.58;;;3.09;100.00
57050;BME280;42935;50.966;16.992;2023-11-18T10:20:55;102303.82;;;3.11;100.00
57050;BME280;42935;50.966;16.992;2023-11-18T10:24:15;102310.63;;;3.14;100.00
57050;BME280;42935;50.966;16.992;2023-11-18T10:27:35;102317.97;;;3.13;100.00
57050;BME280;42935;50.966;16.992;2023-11-18T10:30:57;102312.06;;;3.13;100.00
57050;BME280;42935;50.966;16.992;2023-11-18T10:34:15;102312.81;;;3.20;100.00
57050;BME280;42935;50.966;16.992;2023-11-18T10:37:37;102302.65;;;3.20;100.00
57050;BME280;42935;50.966;16.992;2023-11-18T10:41:02;102317.97;;;3.37;100.00
57050;BME280;42935;50.966;16.992;2023-11-18T10:44:17;102306.30;;;3.41;100.00
57050;BME280;42935;50.966;16.992;2023-11-18T10:47:35;102309.91;;;3.38;100.00
57050;BME280;42935;50.966;16.992;2023-11-18T10:50:54;102308.32;;;3.52;100.00
57050;BME280;42935;50.966;16.992;2023-11-18T10:54:15;102308.30;;;3.58;100.00
57050;BME280;42935;50.966;16.992;2023-11-18T10:57:39;102297.83;;;3.59;100.00
57050;BME280;42935;50.966;16.992;2023-11-18T11:00:58;102312.64;;;3.61;100.00
57050;BME280;42935;50.966;16.992;2023-11-18T11:04:12;102309.54;;;3.83;100.00
57050;BME280;42935;50.966;16.992;2023-11-18T11:07:38;102312.65;;;3.89;100.00
57050;BME280;42935;50.966;16.992;2023-11-18T11:10:57;102308.12;;;3.73;100.00
57050;BME280;42935;50.966;16.992;2023-11-18T11:14:12;102312.67;;;3.78;100.00
57050;BME280;42935;50.966;16.992;2023-11-18T11:17:35;102312.80;;;4.01;100.00
57050;BME280;42935;50.966;16.992;2023-11-18T11:21:24;102317.03;;;3.99;100.00
57050;BME280;42935;50.966;16.992;2023-11-18T11:28:16;102316.13;;;4.31;100.00
57050;BME280;42935;50.966;16.992;2023-11-18T11:31:38;102299.52;;;4.14;100.00
57050;BME280;42935;50.966;16.992;2023-11-18T11:35:31;102325.89;;;4.12;100.00
57050;BME280;42935;50.966;16.992;2023-11-18T11:39:24;102326.98;;;4.01;100.00
57050;BME280;42935;50.966;16.992;2023-11-18T11:42:53;102322.88;;;3.81;100.00
57050;BME280;42935;50.966;16.992;2023-11-18T11:46:53;102290.55;;;3.74;100.00
57050;BME280;42935;50.966;16.992;2023-11-18T11:50:37;102338.53;;;4.12;100.00
57050;BME280;42935;50.966;16.992;2023-11-18T11:53:49;102338.13;;;4.09;100.00
57050;BME280;42935;50.966;16.992;2023-11-18T11:57:10;102341.35;;;4.25;100.00
57050;BME280;42935;50.966;16.992;2023-11-18T12:00:36;102349.58;;;4.23;100.00
57050;BME280;42935;50.966;16.992;2023-11-18T12:03:57;102317.77;;;3.92;100.00
57050;BME280;42935;50.966;16.992;2023-11-18T12:07:21;102340.74;;;4.15;100.00
57050;BME280;42935;50.966;16.992;2023-11-18T12:10:53;102343.22;;;4.18;100.00
57050;BME280;42935;50.966;16.992;2023-11-18T12:14:15;102341.41;;;4.26;100.00
57050;BME280;42935;50.966;16.992;2023-11-18T12:24:42;102329.84;;;4.14;100.00
57050;BME280;42935;50.966;16.992;2023-11-18T12:28:00;102348.13;;;4.10;100.00
57050;BME280;42935;50.966;16.992;2023-11-18T12:31:38;102351.90;;;4.01;100.00
57050;BME280;42935;50.966;16.992;2023-11-18T12:34:53;102354.26;;;3.87;100.00
57050;BME280;42935;50.966;16.992;2023-11-18T13:06:11;102345.73;;;4.41;100.00
57050;BME280;42935;50.966;16.992;2023-11-18T13:10:54;nan;;;nan;nan
57050;BME280;42935;50.966;16.992;2023-11-18T13:15:31;nan;;;nan;nan
57050;BME280;42935;50.966;16.992;2023-11-18T13:20:13;nan;;;nan;nan
57050;BME280;42935;50.966;16.992;2023-11-18T13:24:49;nan;;;nan;nan
57050;BME280;42935;50.966;16.992;2023-11-18T13:29:24;nan;;;nan;nan
57050;BME280;42935;50.966;16.992;2023-11-18T13:33:57;nan;;;nan;nan
57050;BME280;42935;50.966;16.992;2023-11-18T13:38:32;nan;;;nan;nan
57050;BME280;42935;50.966;16.992;2023-11-18T13:43:06;nan;;;nan;nan
57050;BME280;42935;50.966;16.992;2023-11-18T13:47:39;nan;;;nan;nan
57050;BME280;42935;50.966;16.992;2023-11-18T13:52:14;nan;;;nan;nan
57050;BME280;42935;50.966;16.992;2023-11-18T13:56:51;nan;;;nan;nan
57050;BME280;42935;50.966;16.992;2023-11-18T14:01:25;nan;;;nan;nan
57050;BME280;42935;50.966;16.992;2023-11-18T14:06:00;nan;;;nan;nan
57050;BME280;42935;50.966;16.992;2023-11-18T14:10:36;nan;;;nan;nan
57050;BME280;42935;50.966;16.992;2023-11-18T14:15:13;nan;;;nan;nan
57050;BME280;42935;50.966;16.992;2023-11-18T14:19:54;nan;;;nan;nan
57050;BME280;42935;50.966;16.992;2023-11-18T14:24:35;nan;;;nan;nan
57050;BME280;42935;50.966;16.992;2023-11-18T14:29:09;nan;;;nan;nan
57050;BME280;42935;50.966;16.992;2023-11-18T14:33:52;nan;;;nan;nan
57050;BME280;42935;50.966;16.992;2023-11-18T14:38:38;nan;;;nan;nan
57050;BME280;42935;50.966;16.992;2023-11-18T14:43:12;nan;;;nan;nan
57050;BME280;42935;50.966;16.992;2023-11-18T14:47:52;nan;;;nan;nan
57050;BME280;42935;50.966;16.992;2023-11-18T14:52:37;nan;;;nan;nan
57050;BME280;42935;50.966;16.992;2023-11-18T14:57:16;nan;;;nan;nan
57050;BME280;42935;50.966;16.992;2023-11-18T15:01:51;nan;;;nan;nan
57050;BME280;42935;50.966;16.992;2023-11-18T15:06:30;nan;;;nan;nan
57050;BME280;42935;50.966;16.992;2023-11-18T15:11:07;nan;;;nan;nan
57050;BME280;42935;50.966;16.992;2023-11-18T15:15:45;nan;;;nan;nan
57050;BME280;42935;50.966;16.992;2023-11-18T15:20:24;nan;;;nan;nan
57050;BME280;42935;50.966;16.992;2023-11-18T15:24:57;nan;;;nan;nan
57050;BME280;42935;50.966;16.992;2023-11-18T15:29:32;nan;;;nan;nan
57050;BME280;42935;50.966;16.992;2023-11-18T15:34:15;nan;;;nan;nan
57050;BME280;42935;50.966;16.992;2023-11-18T15:38:48;nan;;;nan;nan
57050;BME280;42935;50.966;16.992;2023-11-18T15:43:22;nan;;;nan;nan
57050;BME280;42935;50.966;16.992;2023-11-18T15:48:03;nan;;;nan;nan
57050;BME280;42935;50.966;16.992;2023-11-18T15:52:39;nan;;;nan;nan
57050;BME280;42935;50.966;16.992;2023-11-18T15:57:13;nan;;;nan;nan
57050;BME280;42935;50.966;16.992;2023-11-18T16:01:49;nan;;;nan;nan
57050;BME280;42935;50.966;16.992;2023-11-18T16:06:24;nan;;;nan;nan
57050;BME280;42935;50.966;16.992;2023-11-18T16:11:02;nan;;;nan;nan
57050;BME280;42935;50.966;16.992;2023-11-18T16:15:36;nan;;;nan;nan
57050;BME280;42935;50.966;16.992;2023-11-18T16:20:10;nan;;;nan;nan
57050;BME280;42935;50.966;16.992;2023-11-18T16:24:47;nan;;;nan;nan
57050;BME280;42935;50.966;16.992;2023-11-18T16:29:20;nan;;;nan;nan
57050;BME280;42935;50.966;16.992;2023-11-18T16:33:54;nan;;;nan;nan
57050;BME280;42935;50.966;16.992;2023-11-18T16:38:27;nan;;;nan;nan
57050;BME280;42935;50.966;16.992;2023-11-18T16:43:05;nan;;;nan;nan
57050;BME280;42935;50.966;16.992;2023-11-18T16:47:48;nan;;;nan;nan
57050;BME280;42935;50.966;16.992;2023-11-18T16:52:28;nan;;;nan;nan
57050;BME280;42935;50.966;16.992;2023-11-18T16:57:09;nan;;;nan;nan
57050;BME280;42935;50.966;16.992;2023-11-18T17:01:47;nan;;;nan;nan
57050;BME280;42935;50.966;16.992;2023-11-18T17:06:24;nan;;;nan;nan
57050;BME280;42935;50.966;16.992;2023-11-18T17:11:03;nan;;;nan;nan
57050;BME280;42935;50.966;16.992;2023-11-18T17:15:45;nan;;;nan;nan
57050;BME280;42935;50.966;16.992;2023-11-18T17:20:19;nan;;;nan;nan
57050;BME280;42935;50.966;16.992;2023-11-18T17:24:52;nan;;;nan;nan
57050;BME280;42935;50.966;16.992;2023-11-18T17:29:28;nan;;;nan;nan
57050;BME280;42935;50.966;16.992;2023-11-18T17:34:01;nan;;;nan;nan
57050;BME280;42935;50.966;16.992;2023-11-18T17:38:36;nan;;;nan;nan
57050;BME280;42935;50.966;16.992;2023-11-18T17:43:13;nan;;;nan;nan
57050;BME280;42935;50.966;16.992;2023-11-18T17:47:54;nan;;;nan;nan
57050;BME280;42935;50.966;16.992;2023-11-18T17:52:28;nan;;;nan;nan
57050;BME280;42935;50.966;16.992;2023-11-18T17:57:01;nan;;;nan;nan
57050;BME280;42935;50.966;16.992;2023-11-18T18:01:44;nan;;;nan;nan
57050;BME280;42935;50.966;16.992;2023-11-18T18:06:18;nan;;;nan;nan
57050;BME280;42935;50.966;16.992;2023-11-18T18:10:52;nan;;;nan;nan
57050;BME280;42935;50.966;16.992;2023-11-18T18:15:25;nan;;;nan;nan
57050;BME280;42935;50.966;16.992;2023-11-18T18:20:01;nan;;;nan;nan
57050;BME280;42935;50.966;16.992;2023-11-18T18:24:35;nan;;;nan;nan
57050;BME280;42935;50.966;16.992;2023-11-18T18:29:08;nan;;;nan;nan
57050;BME280;42935;50.966;16.992;2023-11-18T18:33:48;nan;;;nan;nan
57050;BME280;42935;50.966;16.992;2023-11-18T18:38:23;nan;;;nan;nan
57050;BME280;42935;50.966;16.992;2023-11-18T18:42:56;nan;;;nan;nan
57050;BME280;42935;50.966;16.992;2023-11-18T18:47:34;nan;;;nan;nan
57050;BME280;42935;50.966;16.992;2023-11-18T18:52:07;nan;;;nan;nan
57050;BME280;42935;50.966;16.992;2023-11-18T18:56:40;nan;;;nan;nan
57050;BME280;42935;50.966;16.992;2023-11-18T19:01:13;nan;;;nan;nan
57050;BME280;42935;50.966;16.992;2023-11-18T19:05:47;nan;;;nan;nan
57050;BME280;42935;50.966;16.992;2023-11-18T19:10:22;nan;;;nan;nan
57050;BME280;42935;50.966;16.992;2023-11-18T19:14:56;nan;;;nan;nan
57050;BME280;42935;50.966;16.992;2023-11-18T19:19:35;nan;;;nan;nan
57050;BME280;42935;50.966;16.992;2023-11-18T19:24:09;nan;;;nan;nan
57050;BME280;42935;50.966;16.992;2023-11-18T19:28:46;nan;;;nan;nan
57050;BME280;42935;50.966;16.992;2023-11-18T19:33:20;nan;;;nan;nan
57050;BME280;42935;50.966;16.992;2023-11-18T19:37:54;nan;;;nan;nan
57050;BME280;42935;50.966;16.992;2023-11-18T19:42:27;nan;;;nan;nan
57050;BME280;42935;50.966;16.992;2023-11-18T19:47:00;nan;;;nan;nan
57050;BME280;42935;50.966;16.992;2023-11-18T19:51:33;nan;;;nan;nan
57050;BME280;42935;50.966;16.992;2023-11-18T19:56:07;nan;;;nan;nan
57050;BME280;42935;50.966;16.992;2023-11-18T20:00:50;nan;;;nan;nan
57050;BME280;42935;50.966;16.992;2023-11-18T20:05:25;nan;;;nan;nan
57050;BME280;42935;50.966;16.992;2023-11-18T20:10:00;nan;;;nan;nan
57050;BME280;42935;50.966;16.992;2023-11-18T20:14:34;nan;;;nan;nan
57050;BME280;42935;50.966;16.992;2023-11-18T20:19:08;nan;;;nan;nan
57050;BME280;42935;50.966;16.992;2023-11-18T20:23:42;nan;;;nan;nan
57050;BME280;42935;50.966;16.992;2023-11-18T20:28:15;nan;;;nan;nan
57050;BME280;42935;50.966;16.992;2023-11-18T20:32:48;nan;;;nan;nan
57050;BME280;42935;50.966;16.992;2023-11-18T20:37:48;nan;;;nan;nan